createdAt,value
2022-09-04T00:01:45.014Z,0.80
2022-09-04T00:04:24.000Z,1.05
2022-09-04T00:07:06.384Z,1.02
2022-09-04T00:09:53.753Z,1.13
2022-09-04T00:12:29.283Z,0.98
2022-09-04T00:15:13.822Z,1.05
2022-09-04T00:17:50.675Z,1.20
2022-09-04T00:20:28.886Z,1.38
2022-09-04T00:23:00.537Z,1.23
2022-09-04T00:25:53.554Z,0.75
2022-09-04T00:28:33.960Z,1.50
2022-09-04T00:31:07.866Z,1.00
2022-09-04T00:33:45.298Z,1.23
2022-09-04T00:36:12.262Z,1.05
2022-09-04T00:38:46.247Z,1.05
2022-09-04T00:41:34.993Z,1.10
2022-09-04T00:44:13.781Z,0.98
2022-09-04T00:47:06.456Z,1.05
2022-09-04T00:49:57.475Z,1.13
2022-09-04T00:52:44.866Z,0.90
2022-09-04T00:55:44.641Z,0.90
2022-09-04T00:58:48.660Z,1.08
2022-09-04T01:01:21.967Z,0.90
2022-09-04T01:03:57.559Z,1.20
2022-09-04T01:06:32.118Z,1.13
2022-09-04T01:09:31.506Z,0.90
2022-09-04T01:12:13.496Z,0.90
2022-09-04T01:14:48.330Z,1.48
2022-09-04T01:17:40.877Z,1.20
2022-09-04T01:20:37.077Z,0.82
2022-09-04T01:23:22.168Z,0.70
2022-09-04T01:26:04.744Z,0.90
2022-09-04T01:28:56.170Z,0.82
2022-09-04T01:31:46.937Z,0.93
2022-09-04T01:34:27.302Z,1.00
2022-09-04T01:37:14.134Z,1.10
2022-09-04T01:39:43.673Z,1.00
2022-09-04T01:42:19.197Z,0.80
2022-09-04T01:44:45.739Z,1.55
2022-09-04T01:47:26.057Z,1.05
2022-09-04T01:50:06.415Z,0.90
2022-09-04T01:52:45.258Z,1.10
2022-09-04T01:55:30.656Z,1.00
2022-09-04T01:58:12.180Z,1.10
2022-09-04T02:00:59.948Z,1.00
2022-09-04T02:04:12.319Z,0.85
2022-09-04T02:06:57.604Z,0.90
2022-09-04T02:09:35.113Z,0.73
2022-09-04T02:12:13.726Z,0.90
2022-09-04T02:15:04.377Z,0.90
2022-09-04T02:17:48.820Z,0.88
2022-09-04T02:20:27.718Z,0.93
2022-09-04T02:23:00.105Z,0.73
2022-09-04T02:25:31.504Z,0.90
2022-09-04T02:28:22.754Z,0.80
2022-09-04T02:31:33.646Z,1.05
2022-09-04T02:34:09.073Z,1.10
2022-09-04T02:36:55.851Z,0.95
2022-09-04T02:39:42.891Z,0.90
2022-09-04T02:42:28.278Z,0.90
2022-09-04T02:45:00.366Z,0.80
2022-09-04T02:47:55.102Z,1.30
2022-09-04T02:50:53.416Z,0.88
2022-09-04T02:53:24.452Z,0.75
2022-09-04T02:55:58.413Z,0.88
2022-09-04T02:58:49.980Z,0.70
2022-09-04T03:01:27.343Z,0.90
2022-09-04T03:04:16.501Z,0.90
2022-09-04T03:06:49.799Z,0.80
2022-09-04T03:09:22.594Z,1.00
2022-09-04T03:11:56.362Z,1.00
2022-09-04T03:14:40.259Z,1.10
2022-09-04T03:17:19.447Z,1.10
2022-09-04T03:19:51.031Z,0.98
2022-09-04T03:22:31.220Z,0.70
2022-09-04T03:25:24.022Z,0.70
2022-09-04T03:27:50.708Z,0.90
2022-09-04T03:30:17.867Z,1.02
2022-09-04T03:32:54.874Z,1.00
2022-09-04T03:35:56.760Z,0.85
2022-09-04T03:38:35.787Z,1.10
2022-09-04T03:41:30.294Z,0.75
2022-09-04T03:44:03.616Z,0.90
2022-09-04T03:46:52.362Z,1.20
2022-09-04T03:49:46.653Z,1.00
2022-09-04T03:52:25.769Z,1.17
2022-09-04T03:55:17.121Z,0.80
2022-09-04T03:58:05.161Z,1.13
2022-09-04T04:00:57.321Z,1.00
2022-09-04T04:03:37.126Z,0.80
2022-09-04T04:06:16.018Z,1.30
2022-09-04T04:08:56.739Z,1.10
2022-09-04T04:11:48.718Z,0.80
2022-09-04T04:14:21.247Z,0.90
2022-09-04T04:16:47.951Z,0.77
2022-09-04T04:19:22.916Z,0.70
2022-09-04T04:22:12.741Z,0.80
2022-09-04T04:24:55.731Z,1.00
2022-09-04T04:27:42.920Z,0.90
2022-09-04T04:30:14.515Z,0.80
2022-09-04T04:32:48.992Z,1.10
2022-09-04T04:35:40.061Z,0.70
2022-09-04T04:38:47.669Z,0.90
2022-09-04T04:41:24.255Z,0.90
2022-09-04T04:44:13.836Z,0.90
2022-09-04T04:47:08.894Z,1.02
2022-09-04T04:49:48.647Z,1.05
2022-09-04T04:52:19.205Z,1.10
2022-09-04T04:55:06.425Z,0.80
2022-09-04T04:57:53.497Z,0.80
2022-09-04T05:00:43.071Z,0.88
2022-09-04T05:03:19.235Z,1.08
2022-09-04T05:06:00.753Z,0.80
2022-09-04T05:08:41.096Z,0.75
2022-09-04T05:11:13.957Z,0.70
2022-09-04T05:13:55.887Z,0.80
2022-09-04T05:16:52.223Z,0.90
2022-09-04T05:19:41.781Z,0.88
2022-09-04T05:22:31.431Z,0.70
2022-09-04T05:25:14.752Z,1.02
2022-09-04T05:28:08.008Z,0.80
2022-09-04T05:30:52.074Z,0.95
2022-09-04T05:33:43.210Z,0.75
2022-09-04T05:36:21.264Z,1.00
2022-09-04T05:39:14.545Z,0.90
2022-09-04T05:42:14.150Z,1.05
2022-09-04T05:45:03.451Z,0.90
2022-09-04T05:47:43.780Z,1.05
2022-09-04T05:50:19.168Z,0.88
2022-09-04T05:52:54.668Z,0.80
2022-09-04T05:55:32.207Z,0.70
2022-09-04T05:58:23.735Z,0.88
2022-09-04T06:01:28.757Z,1.00
2022-09-04T06:04:24.610Z,1.27
2022-09-04T06:07:13.324Z,1.30
2022-09-04T06:09:54.916Z,1.33
2022-09-04T06:12:35.576Z,0.93
2022-09-04T06:15:16.520Z,0.80
2022-09-04T06:18:14.093Z,1.40
2022-09-04T06:20:58.926Z,1.17
2022-09-04T06:23:37.563Z,1.10
2022-09-04T06:26:19.222Z,1.30
2022-09-04T06:29:13.078Z,1.20
2022-09-04T06:31:49.069Z,1.27
2022-09-04T06:34:30.705Z,1.20
2022-09-04T06:37:02.937Z,0.98
2022-09-04T06:39:47.942Z,1.50
2022-09-04T06:42:27.466Z,1.20
2022-09-04T06:45:15.228Z,1.80
2022-09-04T06:48:00.794Z,1.40
2022-09-04T06:50:48.637Z,1.30
2022-09-04T06:53:19.944Z,1.30
2022-09-04T06:56:04.577Z,1.00
2022-09-04T06:59:01.450Z,1.33
2022-09-04T07:02:01.318Z,2.30
2022-09-04T07:04:54.423Z,1.50
2022-09-04T07:07:37.397Z,1.60
2022-09-04T07:10:23.293Z,1.20
2022-09-04T07:12:58.816Z,1.50
2022-09-04T07:15:50.158Z,1.80
2022-09-04T07:18:42.587Z,1.50
2022-09-04T07:21:12.381Z,2.03
2022-09-04T07:23:47.947Z,1.67
2022-09-04T07:26:45.199Z,1.92
2022-09-04T07:29:32.099Z,2.03
2022-09-04T07:32:18.907Z,1.75
2022-09-04T07:34:55.376Z,1.60
2022-09-04T07:37:40.055Z,1.70
2022-09-04T07:40:20.250Z,1.70
2022-09-04T07:42:55.868Z,1.77
2022-09-04T07:45:30.130Z,1.75
2022-09-04T07:48:05.346Z,1.80
2022-09-04T07:50:45.678Z,1.80
2022-09-04T07:53:45.942Z,1.80
2022-09-04T07:56:31.125Z,1.50
2022-09-04T07:59:00.697Z,1.60
2022-09-04T08:01:42.542Z,1.70
2022-09-04T08:04:23.359Z,1.70
2022-09-04T08:07:11.257Z,1.80
2022-09-04T08:09:43.878Z,2.13
2022-09-04T08:12:48.888Z,1.90
2022-09-04T08:15:22.145Z,1.95
2022-09-04T08:18:01.716Z,1.92
2022-09-04T08:20:39.910Z,1.70
2022-09-04T08:23:51.774Z,1.38
2022-09-04T08:26:41.796Z,2.00
2022-09-04T08:29:29.543Z,1.55
2022-09-04T08:32:12.047Z,2.00
2022-09-04T08:34:56.208Z,1.88
2022-09-04T08:37:28.304Z,2.33
2022-09-04T08:40:11.437Z,2.03
2022-09-04T08:43:15.697Z,2.13
2022-09-04T08:46:11.741Z,1.60
2022-09-04T08:49:09.534Z,2.20
2022-09-04T08:51:49.663Z,1.95
2022-09-04T08:55:03.270Z,1.80
2022-09-04T08:57:42.928Z,1.70
2022-09-04T09:00:22.158Z,1.55
2022-09-04T09:03:03.230Z,1.85
2022-09-04T09:05:44.511Z,1.90
2022-09-04T09:08:21.660Z,1.85
2022-09-04T09:10:54.328Z,1.73
2022-09-04T09:13:50.809Z,1.60
2022-09-04T09:16:37.465Z,1.48
2022-09-04T09:19:29.459Z,1.65
2022-09-04T09:22:12.490Z,1.70
2022-09-04T09:25:07.989Z,1.52
2022-09-04T09:28:00.270Z,1.65
2022-09-04T09:30:51.151Z,1.40
2022-09-04T09:33:35.890Z,1.73
2022-09-04T09:36:44.462Z,1.65
2022-09-04T09:39:34.346Z,1.30
2022-09-04T09:42:15.194Z,1.60
2022-09-04T09:45:02.975Z,1.33
2022-09-04T09:47:48.720Z,1.40
2022-09-04T09:50:15.318Z,1.48
2022-09-04T09:52:47.671Z,1.30
2022-09-04T09:55:25.528Z,1.40
2022-09-04T09:58:09.987Z,1.17
2022-09-04T10:00:47.452Z,1.52
2022-09-04T10:03:39.169Z,1.00
2022-09-04T10:06:28.851Z,1.42
2022-09-04T10:09:22.847Z,1.67
2022-09-04T10:12:10.973Z,1.40
2022-09-04T10:14:58.729Z,1.50
2022-09-04T10:17:31.299Z,1.23
2022-09-04T10:20:17.068Z,1.10
2022-09-04T10:23:10.260Z,1.00
2022-09-04T10:26:04.002Z,1.30
2022-09-04T10:28:49.351Z,1.17
2022-09-04T10:31:35.049Z,1.20
2022-09-04T10:34:17.013Z,1.70
2022-09-04T10:37:14.210Z,1.35
2022-09-04T10:40:02.493Z,1.88
2022-09-04T10:42:35.097Z,1.88
2022-09-04T10:45:10.547Z,1.80
2022-09-04T10:47:52.417Z,1.73
2022-09-04T10:50:28.829Z,1.30
2022-09-04T10:53:08.517Z,1.25
2022-09-04T10:55:50.248Z,1.35
2022-09-04T10:58:26.651Z,1.67
2022-09-04T11:01:17.659Z,1.42
2022-09-04T11:04:14.509Z,1.38
2022-09-04T11:06:48.214Z,1.20
2022-09-04T11:09:58.271Z,1.27
2022-09-04T11:12:31.824Z,1.27
2022-09-04T11:15:01.468Z,1.10
2022-09-04T11:17:32.983Z,1.65
2022-09-04T11:20:09.413Z,1.33
2022-09-04T11:22:41.384Z,1.50
2022-09-04T11:25:39.188Z,1.58
2022-09-04T11:28:31.236Z,1.60
2022-09-04T11:31:21.020Z,1.50
2022-09-04T11:34:22.950Z,1.85
2022-09-04T11:37:49.825Z,1.20
2022-09-04T11:40:43.786Z,1.63
2022-09-04T11:43:42.345Z,1.50
2022-09-04T11:46:41.165Z,1.40
2022-09-04T11:49:28.197Z,1.90
2022-09-04T11:52:13.898Z,1.40
2022-09-04T11:55:14.300Z,1.90
2022-09-04T11:58:06.423Z,1.23
2022-09-04T12:00:48.238Z,1.45
2022-09-04T12:03:36.698Z,1.27
2022-09-04T12:06:15.943Z,1.42
2022-09-04T12:08:53.482Z,1.40
2022-09-04T12:11:49.516Z,1.42
2022-09-04T12:14:41.864Z,1.50
2022-09-04T12:17:56.518Z,1.25
2022-09-04T12:20:34.866Z,1.63
2022-09-04T12:23:17.780Z,1.60
2022-09-04T12:26:03.943Z,1.48
2022-09-04T12:29:02.721Z,1.90
2022-09-04T12:31:36.149Z,1.55
2022-09-04T12:34:20.267Z,1.70
2022-09-04T12:37:06.231Z,1.40
2022-09-04T12:39:56.525Z,1.30
2022-09-04T12:42:32.579Z,1.45
2022-09-04T12:45:26.268Z,1.50
2022-09-04T12:48:33.342Z,1.30
2022-09-04T12:51:25.378Z,1.15
2022-09-04T12:54:01.056Z,1.25
2022-09-04T12:57:11.731Z,1.67
2022-09-04T12:59:58.940Z,1.40
2022-09-04T13:02:26.235Z,1.50
2022-09-04T13:05:14.136Z,1.58
2022-09-04T13:08:19.403Z,1.55
2022-09-04T13:11:04.962Z,1.40
2022-09-04T13:13:51.327Z,1.20
2022-09-04T13:16:31.053Z,1.75
2022-09-04T13:19:12.899Z,1.25
2022-09-04T13:22:13.067Z,1.50
2022-09-04T13:24:51.393Z,1.42
2022-09-04T13:27:27.180Z,1.65
2022-09-04T13:30:21.947Z,1.70
2022-09-04T13:33:25.807Z,1.48
2022-09-04T13:36:04.096Z,1.52
2022-09-04T13:38:33.685Z,1.15
2022-09-04T13:41:12.890Z,1.60
2022-09-04T13:44:10.339Z,1.38
2022-09-04T13:46:43.140Z,1.27
2022-09-04T13:49:16.524Z,1.20
2022-09-04T13:51:49.709Z,1.42
2022-09-04T13:54:25.728Z,1.20
2022-09-04T13:56:58.788Z,1.45
2022-09-04T13:59:25.487Z,1.40
2022-09-04T14:01:54.927Z,1.02
2022-09-04T14:04:26.656Z,1.40
2022-09-04T14:07:10.759Z,1.13
2022-09-04T14:09:44.490Z,1.45
2022-09-04T14:12:35.562Z,1.20
2022-09-04T14:15:31.504Z,1.38
2022-09-04T14:18:14.063Z,1.20
2022-09-04T14:20:58.065Z,1.40
2022-09-04T14:23:36.813Z,1.08
2022-09-04T14:26:12.702Z,1.40
2022-09-04T14:28:56.941Z,1.40
2022-09-04T14:31:46.697Z,1.67
2022-09-04T14:34:48.018Z,1.27
2022-09-04T14:37:55.761Z,1.48
2022-09-04T14:40:34.285Z,1.17
2022-09-04T14:43:31.622Z,1.25
2022-09-04T14:46:19.047Z,1.40
2022-09-04T14:48:51.186Z,1.42
2022-09-04T14:51:34.240Z,1.23
2022-09-04T14:54:02.114Z,1.42
2022-09-04T14:56:29.132Z,1.40
2022-09-04T14:59:02.756Z,1.63
2022-09-04T15:01:32.271Z,1.58
2022-09-04T15:04:11.206Z,1.70
2022-09-04T15:07:10.236Z,1.98
2022-09-04T15:09:39.508Z,1.30
2022-09-04T15:12:33.094Z,1.55
2022-09-04T15:15:18.956Z,2.00
2022-09-04T15:17:51.524Z,1.40
2022-09-04T15:20:22.657Z,1.50
2022-09-04T15:22:59.839Z,1.73
2022-09-04T15:26:02.200Z,1.58
2022-09-04T15:28:38.513Z,1.38
2022-09-04T15:31:14.701Z,1.50
2022-09-04T15:33:42.832Z,1.52
2022-09-04T15:36:15.409Z,1.50
2022-09-04T15:38:50.744Z,1.35
2022-09-04T15:41:34.884Z,1.65
2022-09-04T15:44:11.247Z,1.33
2022-09-04T15:47:04.508Z,1.92
2022-09-04T15:49:49.909Z,1.38
2022-09-04T15:52:41.415Z,1.60
2022-09-04T15:55:27.180Z,1.40
2022-09-04T15:58:12.116Z,1.55
2022-09-04T16:00:56.493Z,1.52
2022-09-04T16:03:29.577Z,1.50
2022-09-04T16:06:06.334Z,1.42
2022-09-04T16:08:41.307Z,1.17
2022-09-04T16:11:28.699Z,1.50
2022-09-04T16:14:17.194Z,1.30
2022-09-04T16:16:56.480Z,1.38
2022-09-04T16:19:33.913Z,1.63
2022-09-04T16:22:08.115Z,1.85
2022-09-04T16:24:46.740Z,1.70
2022-09-04T16:27:20.168Z,1.42
2022-09-04T16:29:56.822Z,1.33
2022-09-04T16:32:25.920Z,1.38
2022-09-04T16:35:12.724Z,1.27
2022-09-04T16:37:45.109Z,1.83
2022-09-04T16:40:21.664Z,1.58
2022-09-04T16:42:53.428Z,1.30
2022-09-04T16:45:22.833Z,1.10
2022-09-04T16:47:54.667Z,1.33
2022-09-04T16:50:28.164Z,1.48
2022-09-04T16:53:14.347Z,1.42
2022-09-04T16:55:57.958Z,1.40
2022-09-04T16:58:34.799Z,1.55
2022-09-04T17:01:14.366Z,1.25
2022-09-04T17:04:13.593Z,1.35
2022-09-04T17:06:54.379Z,1.63
2022-09-04T17:09:28.424Z,1.63
2022-09-04T17:12:00.369Z,1.50
2022-09-04T17:14:44.617Z,1.70
2022-09-04T17:17:31.286Z,1.60
2022-09-04T17:20:01.883Z,1.83
2022-09-04T17:28:53.902Z,1.52
2022-09-04T17:29:11.931Z,1.83
2022-09-04T17:29:12.475Z,1.60
2022-09-04T17:31:38.427Z,1.65
2022-09-04T17:40:33.973Z,1.80
2022-09-04T17:40:49.874Z,2.00
2022-09-04T17:40:51.298Z,1.92
2022-09-04T17:43:29.184Z,1.50
2022-09-04T17:46:27.613Z,1.77
2022-09-04T17:48:55.695Z,1.45
2022-09-04T17:51:29.319Z,2.00
2022-09-04T17:53:58.831Z,1.73
2022-09-04T17:56:28.224Z,1.85
2022-09-04T17:59:21.442Z,2.20
2022-09-04T18:01:50.900Z,1.90
2022-09-04T18:04:33.758Z,2.00
2022-09-04T18:07:29.942Z,1.70
2022-09-04T18:10:31.434Z,2.00
2022-09-04T18:13:37.036Z,1.88
2022-09-04T18:16:11.601Z,1.70
2022-09-04T18:18:51.182Z,2.10
2022-09-04T18:21:23.085Z,2.00
2022-09-04T18:23:56.916Z,2.30
2022-09-04T18:26:41.471Z,2.60
2022-09-04T18:30:13.879Z,2.58
2022-09-04T18:37:17.800Z,1.90
2022-09-04T18:37:24.173Z,2.72
2022-09-04T18:39:12.529Z,2.15
2022-09-04T18:50:22.298Z,3.20
2022-09-04T18:50:33.813Z,2.20
2022-09-04T18:50:37.649Z,2.28
2022-09-04T18:53:42.591Z,2.00
2022-09-04T18:56:20.291Z,2.50
2022-09-04T18:58:51.362Z,2.50
2022-09-04T19:01:28.953Z,2.47
2022-09-04T19:04:19.888Z,2.33
2022-09-04T19:06:53.874Z,2.22
2022-09-04T19:10:03.212Z,2.58
2022-09-04T19:12:47.137Z,2.63
2022-09-04T19:15:36.029Z,2.40
2022-09-04T19:18:26.804Z,2.20
2022-09-04T19:21:21.361Z,2.03
2022-09-04T19:24:18.363Z,2.20
2022-09-04T19:26:48.592Z,2.25
2022-09-04T19:29:42.733Z,2.40
2022-09-04T19:32:10.019Z,2.65
2022-09-04T19:34:55.319Z,2.30
2022-09-04T19:39:15.481Z,2.28
2022-09-04T19:45:54.750Z,2.63
2022-09-04T19:46:06.802Z,2.30
2022-09-04T19:46:57.430Z,2.10
2022-09-04T19:51:22.196Z,2.53
2022-09-04T19:53:35.615Z,2.10
2022-09-04T19:55:38.032Z,2.72
2022-09-04T19:58:15.166Z,2.78
2022-09-04T20:00:54.744Z,2.67
2022-09-04T20:03:29.786Z,2.75
2022-09-04T20:06:20.893Z,2.58
2022-09-04T20:09:07.791Z,2.83
2022-09-04T20:11:48.474Z,2.70
2022-09-04T20:14:47.102Z,2.60
2022-09-04T20:17:28.554Z,2.20
2022-09-04T20:19:59.872Z,2.35
2022-09-04T20:22:34.458Z,2.60
2022-09-04T20:25:07.024Z,2.42
2022-09-04T20:27:46.926Z,2.70
2022-09-04T20:30:19.330Z,2.92
2022-09-04T20:33:06.542Z,2.40
2022-09-04T20:35:51.250Z,2.53
2022-09-04T20:38:30.610Z,2.22
2022-09-04T20:41:02.438Z,2.50
2022-09-04T20:43:54.338Z,1.98
2022-09-04T20:50:51.949Z,2.67
2022-09-04T20:52:49.775Z,2.22
2022-09-04T20:52:58.762Z,2.78
2022-09-04T20:55:32.988Z,2.47
2022-09-04T21:01:59.178Z,2.55
2022-09-04T21:03:17.613Z,2.22
2022-09-04T21:04:17.907Z,2.78
2022-09-04T21:07:07.166Z,2.60
2022-09-04T21:09:49.534Z,2.38
2022-09-04T21:12:31.326Z,2.42
2022-09-04T21:15:24.330Z,3.00
2022-09-04T21:18:05.004Z,2.47
2022-09-04T21:21:12.542Z,2.45
2022-09-04T21:24:02.998Z,2.47
2022-09-04T21:26:56.598Z,2.70
2022-09-04T21:29:44.650Z,2.60
2022-09-04T21:32:38.286Z,2.45
2022-09-04T21:35:23.649Z,3.63
2022-09-04T21:38:25.019Z,2.75
2022-09-04T21:40:57.469Z,2.60
2022-09-04T21:43:42.158Z,2.55
2022-09-04T21:46:36.166Z,2.75
2022-09-04T21:49:30.924Z,2.50
2022-09-04T21:52:09.279Z,3.03
2022-09-04T21:57:08.998Z,2.28
2022-09-04T22:02:28.468Z,2.42
2022-09-04T22:02:37.963Z,2.28
2022-09-04T22:04:16.499Z,2.50
2022-09-04T22:07:22.256Z,2.30
2022-09-04T22:13:37.240Z,2.40
2022-09-04T22:13:39.193Z,2.42
2022-09-04T22:15:50.819Z,2.70
2022-09-04T22:18:20.181Z,2.70
2022-09-04T22:21:04.582Z,2.33
2022-09-04T22:23:58.098Z,2.35
2022-09-04T22:26:43.090Z,2.88
2022-09-04T22:29:46.697Z,2.30
2022-09-04T22:32:29.200Z,2.90
2022-09-04T22:35:20.264Z,2.60
2022-09-04T22:38:14.268Z,2.35
2022-09-04T22:41:19.404Z,2.90
2022-09-04T22:43:57.918Z,2.80
2022-09-04T22:47:20.050Z,2.85
2022-09-04T22:50:29.010Z,3.05
2022-09-04T22:53:26.891Z,2.78
2022-09-04T22:56:22.766Z,2.17
2022-09-04T22:59:20.405Z,2.30
2022-09-04T23:02:01.349Z,2.65
2022-09-04T23:04:59.352Z,2.75
2022-09-04T23:13:42.158Z,2.78
2022-09-04T23:13:57.503Z,2.92
2022-09-04T23:14:05.365Z,2.45
2022-09-04T23:16:45.724Z,2.65
2022-09-04T23:20:30.296Z,2.60
2022-09-04T23:26:42.535Z,2.35
2022-09-04T23:26:46.033Z,2.45
2022-09-04T23:28:27.888Z,2.63
2022-09-04T23:31:07.207Z,2.80
2022-09-04T23:33:49.693Z,2.67
2022-09-04T23:36:33.512Z,3.00
2022-09-04T23:39:17.183Z,2.70
2022-09-04T23:41:53.564Z,2.67
2022-09-04T23:44:38.890Z,2.55
2022-09-04T23:47:47.021Z,2.20
2022-09-04T23:50:31.342Z,3.20
2022-09-04T23:53:36.526Z,2.63
2022-09-04T23:56:27.619Z,2.63
2022-09-04T23:59:26.089Z,2.47
